x

Corpus Christi, Tx - 60nm Sse Of Corpus Christi, Tx (42020) Wave Buoy

3:50am - Tue 3rd Mar 2015 All times are CST. -6 hours from GMT.

  • Sig Wave height 2.6ft
  • Swell Direction
  • Peak Period 8s
  • Average Period 4s
  • Wind
    13mph, 18mph gusts
  • Sea Temp 66°f
  • Air Temp 69°f
  • Sea Pressure 1015.7mb
  • Corpus Christi, Tx - 60nm Sse Of Corpus Christi, Tx
  • Corpus Christi, Tx - 60nm Sse Of Corpus Christi, Tx

More Historic Weather Station data

Upgrade to MSW Pro to gain access to the past 30 days of data for over 8000 Wavebouys and Weather Stations around the globe.

Join Pro

Comparision Forecast

View Surf forecast
   
Tue 03/03 3:50am 2.5ft 8s 4s 13 18 mph 1015.7mb 66f 69f
2:50am 2.5ft 8s 5s 11 16 mph 1016.5mb 66f 69f
1:50am 2.5ft 8s 5s 11
mph
1017.6mb 66f 68f
12:50am 2.5ft 8s 5s 7 9 mph 1018.3mb 66f 68f
Mon 03/02 11:50pm 2.5ft 8s 5s 9 11 mph 1019.1mb 66f 68f
10:50pm 2.5ft 6s 5s 11 13 mph 1019.2mb 66f 69f
9:50pm 2.5ft 5s 5s 4 7 mph 1019.4mb 66f 68f
8:50pm 3.5ft 5s 5s 7
mph
1019.5mb 66f 67f
7:50pm 3.5ft 5s 5s 4
mph
1019.3mb 66f 67f
6:50pm 3.5ft 5s 5s 4
mph
1018.9mb 66f 67f
5:50pm 3.5ft 5s 5s 9 11 mph 1019.1mb 66f 67f
4:50pm 4ft 5s 5s 16
mph
1019.2mb 66f 66f
3:50pm 3.5ft 6s 5s 16 20 mph 1019.8mb 66f 64f
2:50pm 4ft 6s 5s 16 20 mph 1020.7mb 66f 63f
1:50pm 4ft 5s 5s 16 18 mph 1021.6mb 66f 63f
12:50pm 4ft 6s 5s 16 18 mph 1022.6mb 66f 63f
11:50am 4ft 7s 5s 18 20 mph 1023.4mb 66f 62f
10:50am 4ft 7s 5s 13 16 mph 1024.2mb 66f 63f
9:50am 4ft 6s 5s 11 13 mph 1024.3mb 65f 63f
8:50am 3.5ft 5s 5s 16 20 mph 1023.3mb 65f 62f
7:50am 4ft 5s 5s 16 18 mph 1022.9mb 65f 62f
6:50am 4ft 7s 5s 13 16 mph 1022.8mb 65f 62f
5:50am 4ft 8s 5s 18 20 mph 1021.8mb 65f 62f
4:50am 4ft 8s 5s 16 18 mph 1021.9mb 65f 61f
3:50am 3.5ft 8s 5s 18 20 mph 1021.8mb 65f 60f
2:50am 4ft 8s 5s 16 18 mph 1022mb 65f 61f
1:50am 4.5ft 8s 5s 18 20 mph 1022.3mb 65f 61f
12:50am 4ft 8s 5s 16 18 mph 1022.8mb 65f 61f
Sun 03/01 11:50pm 4.5ft 8s 6s 16 18 mph 1022.8mb 65f 63f
10:50pm 4ft 7s 5s 13
mph
1022.7mb 64f 64f
9:50pm 4ft 8s 5s 13 16 mph 1022.5mb 64f 63f
8:50pm 4ft 9s 5s 11 13 mph 1022.1mb 64f 64f
7:50pm 4.5ft 8s 5s 13
mph
1021.1mb 64f 63f
6:50pm 4.5ft 8s 6s 13
mph
1020.5mb 64f 62f
5:50pm 4.5ft 8s 6s 13
mph
1020.2mb 64f 61f
4:50pm 5ft 8s 6s 16 18 mph 1019.9mb 65f 60f
3:50pm 4.5ft 8s 6s 13 16 mph 1020mb 65f 60f
2:50pm 5ft 8s 6s 13 16 mph 1020.3mb 65f 60f
1:50pm 5ft 8s 6s 11 13 mph 1020.6mb 65f 60f
12:50pm 5ft 8s 6s 11
mph
1021.5mb 65f 61f
11:50am 5.5ft 8s 6s 9 11 mph 1022.1mb 65f 61f
10:50am 5ft 8s 6s 9 11 mph 1022.5mb 65f 61f
9:50am 5.5ft 8s 6s 9
mph
1022.5mb 65f 61f
8:50am 5ft 8s 6s 9 11 mph 1021.5mb 65f 61f
7:50am 5ft 9s 6s 11 13 mph 1020.8mb 65f 60f
6:50am 6ft 8s 6s 13 16 mph 1020mb 65f 60f
5:50am 6ft 9s 6s 16 18 mph 1019.4mb 66f 59f
4:50am 5.5ft 9s 6s 18 20 mph 1018.6mb 66f 60f
3:50am 6ft 9s 6s 16 18 mph 1018.6mb 67f 60f
2:50am 6ft 9s 6s 13 16 mph 1019mb 67f 62f
1:50am 7ft 9s 7s 11 13 mph 1019.3mb 67f 63f
12:50am 7ft 9s 6s 11
mph
1019.6mb 67f 62f
Sat 02/28 11:50pm 6.5ft 9s 6s 11 13 mph 1019.9mb 67f 62f
10:50pm 7ft 8s 6s 7 9 mph 1020.1mb 67f 64f
9:50pm 7.5ft 7s 6s 7 9 mph 1020.3mb 67f 64f
8:50pm 7.5ft 9s 6s 7 9 mph 1019.9mb 67f 64f
7:50pm 8ft 8s 7s 7 9 mph 1019.4mb 68f 64f
6:50pm 8ft 9s 6s 7 9 mph 1019.1mb 68f 62f
5:50pm 9ft 10s 7s 11 13 mph 1019.1mb 68f 61f
4:50pm 8.5ft 9s 7s 11
mph
1019mb 69f 61f
3:50pm 9ft 9s 7s 9 13 mph 1018.8mb 69f 60f
2:50pm 8.5ft 9s 7s 11 16 mph 1019.1mb 69f 59f
1:50pm 9ft 9s 7s 13 16 mph 1019.7mb 69f 59f
12:50pm 8.5ft 10s 7s 9 11 mph 1020.3mb 69f 62f
11:50am 8.5ft 9s 6s 11 16 mph 1021.1mb 69f 62f
10:50am 10ft 8s 7s 20 25 mph 1020.8mb 69f 69f
9:50am 10ft 9s 7s 25 29 mph 1020.4mb 69f 68f
8:50am 9.5ft 9s 6s 25 29 mph 1020.2mb 69f 68f
7:50am 10ft 9s 6s 25 29 mph 1020.1mb 69f 67f
6:50am 10.5ft 8s 7s 25 29 mph 1019.6mb 69f 67f
5:50am 9ft 9s 6s 25 29 mph 1019.4mb 69f 66f
4:50am 9ft 8s 6s 27 31 mph 1019mb 69f 66f
3:50am 11ft 8s 6s 27 31 mph 1018.6mb 69f 66f
2:50am 9.5ft 8s 6s 27 31 mph 1019.2mb 69f 65f
1:50am 10ft 8s 6s 27 31 mph 1019.7mb 69f 65f
12:50am 9.5ft 8s 6s 27 31 mph 1020.5mb 69f 64f
Fri 02/27 11:50pm 9ft 7s 6s 27 31 mph 1020.9mb 69f 64f
10:50pm 9ft 7s 6s 27 34 mph 1021.2mb 69f 64f
9:50pm 8ft 7s 6s 27 31 mph 1021.3mb 69f 64f
8:50pm 7ft 7s 5s 25 29 mph 1021mb 69f 64f
7:50pm 7ft 6s 5s 25 29 mph 1020.4mb 69f 64f
6:50pm 6.5ft 7s 5s 22 27 mph 1020.1mb 69f 64f
5:50pm 6.5ft 7s 5s 20 25 mph 1020mb 69f 65f
4:50pm 7ft 8s 5s 20 25 mph 1019.8mb 69f 64f
3:50pm 6ft 8s 5s 20 25 mph 1019.8mb 69f 64f
2:50pm 6.5ft 8s 6s 20 27 mph 1020.2mb 69f 64f
1:50pm 6.5ft 8s 6s 20 25 mph 1021.2mb 69f 63f
12:50pm 7ft 8s 6s 20 25 mph 1022.2mb 69f 63f
11:50am 6ft 7s 5s 20 25 mph 1022.7mb 69f 63f